sensor_id;sensor_type;location;lat;lon;timestamp;temperature;humidity
24252;DHT22;12380;51.118;4.176;2023-12-20T00:01:54;5.90;99.90
24252;DHT22;12380;51.118;4.176;2023-12-20T00:04:20;5.90;99.90
24252;DHT22;12380;51.118;4.176;2023-12-20T00:06:45;5.80;99.90
24252;DHT22;12380;51.118;4.176;2023-12-20T00:09:11;5.80;99.90
24252;DHT22;12380;51.118;4.176;2023-12-20T00:11:36;5.80;99.90
24252;DHT22;12380;51.118;4.176;2023-12-20T00:14:02;5.90;99.90
24252;DHT22;12380;51.118;4.176;2023-12-20T00:16:30;5.90;99.90
24252;DHT22;12380;51.118;4.176;2023-12-20T00:18:57;5.90;99.90
24252;DHT22;12380;51.118;4.176;2023-12-20T00:21:25;5.90;99.90
24252;DHT22;12380;51.118;4.176;2023-12-20T00:23:50;5.70;99.90
24252;DHT22;12380;51.118;4.176;2023-12-20T00:26:18;5.70;99.90
24252;DHT22;12380;51.118;4.176;2023-12-20T00:28:44;5.60;99.90
24252;DHT22;12380;51.118;4.176;2023-12-20T00:31:10;5.60;99.90
24252;DHT22;12380;51.118;4.176;2023-12-20T00:33:35;5.60;99.90
24252;DHT22;12380;51.118;4.176;2023-12-20T00:36:01;5.60;99.90
24252;DHT22;12380;51.118;4.176;2023-12-20T00:38:26;5.70;99.90
24252;DHT22;12380;51.118;4.176;2023-12-20T00:40:54;5.70;99.90
24252;DHT22;12380;51.118;4.176;2023-12-20T00:43:19;5.60;99.90
24252;DHT22;12380;51.118;4.176;2023-12-20T00:45:45;5.50;99.90
24252;DHT22;12380;51.118;4.176;2023-12-20T00:48:11;5.60;99.90
24252;DHT22;12380;51.118;4.176;2023-12-20T00:50:36;5.50;99.90
24252;DHT22;12380;51.118;4.176;2023-12-20T00:53:02;5.70;99.90
24252;DHT22;12380;51.118;4.176;2023-12-20T00:55:28;5.50;99.90
24252;DHT22;12380;51.118;4.176;2023-12-20T00:57:53;5.50;99.90
24252;DHT22;12380;51.118;4.176;2023-12-20T01:00:19;5.60;99.90
24252;DHT22;12380;51.118;4.176;2023-12-20T01:02:44;5.50;99.90
24252;DHT22;12380;51.118;4.176;2023-12-20T01:05:12;5.70;99.90
24252;DHT22;12380;51.118;4.176;2023-12-20T01:07:37;5.60;99.90
24252;DHT22;12380;51.118;4.176;2023-12-20T01:10:03;5.50;99.90
24252;DHT22;12380;51.118;4.176;2023-12-20T01:12:28;5.40;99.90
24252;DHT22;12380;51.118;4.176;2023-12-20T01:14:56;5.30;99.90
24252;DHT22;12380;51.118;4.176;2023-12-20T01:17:23;5.10;99.90
24252;DHT22;12380;51.118;4.176;2023-12-20T01:19:49;5.20;99.90
24252;DHT22;12380;51.118;4.176;2023-12-20T01:22:17;5.20;99.90
24252;DHT22;12380;51.118;4.176;2023-12-20T01:24:42;5.20;99.90
24252;DHT22;12380;51.118;4.176;2023-12-20T01:27:10;5.10;99.90
24252;DHT22;12380;51.118;4.176;2023-12-20T01:29:36;5.20;99.90
24252;DHT22;12380;51.118;4.176;2023-12-20T01:32:01;5.20;99.90
24252;DHT22;12380;51.118;4.176;2023-12-20T01:34:27;5.20;99.90
24252;DHT22;12380;51.118;4.176;2023-12-20T01:36:52;5.20;99.90
24252;DHT22;12380;51.118;4.176;2023-12-20T01:39:18;5.20;99.90
24252;DHT22;12380;51.118;4.176;2023-12-20T01:41:44;5.30;99.90
24252;DHT22;12380;51.118;4.176;2023-12-20T01:44:12;5.40;99.90
24252;DHT22;12380;51.118;4.176;2023-12-20T01:46:37;5.40;99.90
24252;DHT22;12380;51.118;4.176;2023-12-20T01:49:03;5.40;99.90
24252;DHT22;12380;51.118;4.176;2023-12-20T01:51:29;5.50;99.90
24252;DHT22;12380;51.118;4.176;2023-12-20T01:53:55;5.40;99.90
24252;DHT22;12380;51.118;4.176;2023-12-20T01:56:21;5.50;99.90
24252;DHT22;12380;51.118;4.176;2023-12-20T01:58:47;5.50;99.90
24252;DHT22;12380;51.118;4.176;2023-12-20T02:01:13;5.60;99.90
24252;DHT22;12380;51.118;4.176;2023-12-20T02:03:42;5.60;99.90
24252;DHT22;12380;51.118;4.176;2023-12-20T02:06:08;5.70;99.90
24252;DHT22;12380;51.118;4.176;2023-12-20T02:08:34;5.70;99.90
24252;DHT22;12380;51.118;4.176;2023-12-20T02:10:59;5.70;99.90
24252;DHT22;12380;51.118;4.176;2023-12-20T02:13:27;5.70;99.90
24252;DHT22;12380;51.118;4.176;2023-12-20T02:15:55;5.80;99.90
24252;DHT22;12380;51.118;4.176;2023-12-20T02:18:21;5.80;99.90
24252;DHT22;12380;51.118;4.176;2023-12-20T02:20:47;5.80;99.90
24252;DHT22;12380;51.118;4.176;2023-12-20T02:23:13;5.90;99.90
24252;DHT22;12380;51.118;4.176;2023-12-20T02:25:38;6.00;99.90
24252;DHT22;12380;51.118;4.176;2023-12-20T02:28:06;6.00;99.90
24252;DHT22;12380;51.118;4.176;2023-12-20T02:30:32;6.10;99.90
24252;DHT22;12380;51.118;4.176;2023-12-20T02:33:03;6.30;99.90
24252;DHT22;12380;51.118;4.176;2023-12-20T02:35:29;6.30;99.90
24252;DHT22;12380;51.118;4.176;2023-12-20T02:37:54;6.30;99.90
24252;DHT22;12380;51.118;4.176;2023-12-20T02:40:20;6.50;99.90
24252;DHT22;12380;51.118;4.176;2023-12-20T02:42:48;6.40;99.90
24252;DHT22;12380;51.118;4.176;2023-12-20T02:45:13;6.40;99.90
24252;DHT22;12380;51.118;4.176;2023-12-20T02:47:39;6.50;99.90
24252;DHT22;12380;51.118;4.176;2023-12-20T02:50:06;6.50;99.90
24252;DHT22;12380;51.118;4.176;2023-12-20T02:52:34;6.60;99.90
24252;DHT22;12380;51.118;4.176;2023-12-20T02:55:00;6.80;99.90
24252;DHT22;12380;51.118;4.176;2023-12-20T02:57:25;6.70;99.90
24252;DHT22;12380;51.118;4.176;2023-12-20T02:59:51;6.70;99.90
24252;DHT22;12380;51.118;4.176;2023-12-20T03:02:16;6.90;99.90
24252;DHT22;12380;51.118;4.176;2023-12-20T03:04:44;6.80;99.90
24252;DHT22;12380;51.118;4.176;2023-12-20T03:07:10;6.90;99.90
24252;DHT22;12380;51.118;4.176;2023-12-20T03:09:37;6.90;99.90
24252;DHT22;12380;51.118;4.176;2023-12-20T03:12:03;6.90;99.90
24252;DHT22;12380;51.118;4.176;2023-12-20T03:14:28;6.90;99.90
24252;DHT22;12380;51.118;4.176;2023-12-20T03:16:54;6.80;99.90
24252;DHT22;12380;51.118;4.176;2023-12-20T03:19:20;6.70;99.90
24252;DHT22;12380;51.118;4.176;2023-12-20T03:21:45;6.60;99.90
24252;DHT22;12380;51.118;4.176;2023-12-20T03:24:11;6.70;99.90
24252;DHT22;12380;51.118;4.176;2023-12-20T03:26:39;6.60;99.90
24252;DHT22;12380;51.118;4.176;2023-12-20T03:29:04;6.60;99.90
24252;DHT22;12380;51.118;4.176;2023-12-20T03:31:30;6.80;99.90
24252;DHT22;12380;51.118;4.176;2023-12-20T03:33:55;6.80;99.90
24252;DHT22;12380;51.118;4.176;2023-12-20T03:36:21;6.80;99.90
24252;DHT22;12380;51.118;4.176;2023-12-20T03:38:46;6.90;99.90
24252;DHT22;12380;51.118;4.176;2023-12-20T03:41:13;6.90;99.90
24252;DHT22;12380;51.118;4.176;2023-12-20T03:43:38;6.80;99.90
24252;DHT22;12380;51.118;4.176;2023-12-20T03:46:04;6.90;99.90
24252;DHT22;12380;51.118;4.176;2023-12-20T03:48:30;6.80;99.90
24252;DHT22;12380;51.118;4.176;2023-12-20T03:50:56;6.80;99.90
24252;DHT22;12380;51.118;4.176;2023-12-20T03:53:22;6.80;99.90
24252;DHT22;12380;51.118;4.176;2023-12-20T03:55:48;6.80;99.90
24252;DHT22;12380;51.118;4.176;2023-12-20T03:58:14;6.90;99.90
24252;DHT22;12380;51.118;4.176;2023-12-20T04:00:40;6.90;99.90
24252;DHT22;12380;51.118;4.176;2023-12-20T04:03:05;6.80;99.90
24252;DHT22;12380;51.118;4.176;2023-12-20T04:05:31;6.80;99.90
24252;DHT22;12380;51.118;4.176;2023-12-20T04:07:56;6.80;99.90
24252;DHT22;12380;51.118;4.176;2023-12-20T04:10:22;6.80;99.90
24252;DHT22;12380;51.118;4.176;2023-12-20T04:12:47;6.90;99.90
24252;DHT22;12380;51.118;4.176;2023-12-20T04:15:13;7.00;99.90
24252;DHT22;12380;51.118;4.176;2023-12-20T04:17:41;6.90;99.90
24252;DHT22;12380;51.118;4.176;2023-12-20T04:20:07;6.90;99.90
24252;DHT22;12380;51.118;4.176;2023-12-20T04:22:32;6.90;99.90
24252;DHT22;12380;51.118;4.176;2023-12-20T04:24:58;6.80;99.90
24252;DHT22;12380;51.118;4.176;2023-12-20T04:27:23;6.90;99.90
24252;DHT22;12380;51.118;4.176;2023-12-20T04:29:49;6.90;99.90
24252;DHT22;12380;51.118;4.176;2023-12-20T04:32:14;6.90;99.90
24252;DHT22;12380;51.118;4.176;2023-12-20T04:34:40;6.80;99.90
24252;DHT22;12380;51.118;4.176;2023-12-20T04:37:05;6.80;99.90
24252;DHT22;12380;51.118;4.176;2023-12-20T04:39:31;6.70;99.90
24252;DHT22;12380;51.118;4.176;2023-12-20T04:41:57;6.80;99.90
24252;DHT22;12380;51.118;4.176;2023-12-20T04:44:22;6.70;99.90
24252;DHT22;12380;51.118;4.176;2023-12-20T04:46:48;6.90;99.90
24252;DHT22;12380;51.118;4.176;2023-12-20T04:49:14;6.90;99.90
24252;DHT22;12380;51.118;4.176;2023-12-20T04:51:40;6.90;99.90
24252;DHT22;12380;51.118;4.176;2023-12-20T04:54:07;6.70;99.90
24252;DHT22;12380;51.118;4.176;2023-12-20T04:56:35;6.60;99.90
24252;DHT22;12380;51.118;4.176;2023-12-20T04:59:01;6.60;99.90
24252;DHT22;12380;51.118;4.176;2023-12-20T05:01:26;6.50;99.90
24252;DHT22;12380;51.118;4.176;2023-12-20T05:03:52;6.60;99.90
24252;DHT22;12380;51.118;4.176;2023-12-20T05:06:17;6.80;99.90
24252;DHT22;12380;51.118;4.176;2023-12-20T05:08:43;6.80;99.90
24252;DHT22;12380;51.118;4.176;2023-12-20T05:11:09;6.70;99.90
24252;DHT22;12380;51.118;4.176;2023-12-20T05:13:34;6.60;99.90
24252;DHT22;12380;51.118;4.176;2023-12-20T05:16:00;6.60;99.90
24252;DHT22;12380;51.118;4.176;2023-12-20T05:18:25;6.70;99.90
24252;DHT22;12380;51.118;4.176;2023-12-20T05:20:53;6.60;99.90
24252;DHT22;12380;51.118;4.176;2023-12-20T05:23:19;6.50;99.90
24252;DHT22;12380;51.118;4.176;2023-12-20T05:25:45;6.40;99.90
24252;DHT22;12380;51.118;4.176;2023-12-20T05:28:11;6.40;99.90
24252;DHT22;12380;51.118;4.176;2023-12-20T05:30:36;6.30;99.90
24252;DHT22;12380;51.118;4.176;2023-12-20T05:33:02;6.40;99.90
24252;DHT22;12380;51.118;4.176;2023-12-20T05:35:27;6.40;99.90
24252;DHT22;12380;51.118;4.176;2023-12-20T05:37:53;6.40;99.90
24252;DHT22;12380;51.118;4.176;2023-12-20T05:40:18;6.40;99.90
24252;DHT22;12380;51.118;4.176;2023-12-20T05:42:44;6.50;99.90
24252;DHT22;12380;51.118;4.176;2023-12-20T05:45:09;6.50;99.90
24252;DHT22;12380;51.118;4.176;2023-12-20T05:47:38;6.60;99.90
24252;DHT22;12380;51.118;4.176;2023-12-20T05:50:04;6.50;99.90
24252;DHT22;12380;51.118;4.176;2023-12-20T05:52:32;6.50;99.90
24252;DHT22;12380;51.118;4.176;2023-12-20T05:54:58;6.40;99.90
24252;DHT22;12380;51.118;4.176;2023-12-20T05:57:26;6.40;99.90
24252;DHT22;12380;51.118;4.176;2023-12-20T05:59:52;6.30;99.90
24252;DHT22;12380;51.118;4.176;2023-12-20T06:02:20;6.50;99.90
24252;DHT22;12380;51.118;4.176;2023-12-20T06:04:46;6.60;99.90
24252;DHT22;12380;51.118;4.176;2023-12-20T06:07:12;6.50;99.90
24252;DHT22;12380;51.118;4.176;2023-12-20T06:09:38;6.50;99.90
24252;DHT22;12380;51.118;4.176;2023-12-20T06:12:03;6.50;99.90
24252;DHT22;12380;51.118;4.176;2023-12-20T06:14:29;6.40;99.90
24252;DHT22;12380;51.118;4.176;2023-12-20T06:16:56;6.40;99.90
24252;DHT22;12380;51.118;4.176;2023-12-20T06:19:22;6.30;99.90
24252;DHT22;12380;51.118;4.176;2023-12-20T06:21:47;6.40;99.90
24252;DHT22;12380;51.118;4.176;2023-12-20T06:24:14;6.40;99.90
24252;DHT22;12380;51.118;4.176;2023-12-20T06:26:39;6.30;99.90
24252;DHT22;12380;51.118;4.176;2023-12-20T06:29:05;6.20;99.90
24252;DHT22;12380;51.118;4.176;2023-12-20T06:31:31;6.30;99.90
24252;DHT22;12380;51.118;4.176;2023-12-20T06:33:58;6.30;99.90
24252;DHT22;12380;51.118;4.176;2023-12-20T06:36:25;6.20;99.90
24252;DHT22;12380;51.118;4.176;2023-12-20T06:38:51;6.20;99.90
24252;DHT22;12380;51.118;4.176;2023-12-20T06:41:16;6.30;99.90
24252;DHT22;12380;51.118;4.176;2023-12-20T06:43:42;6.30;99.90
24252;DHT22;12380;51.118;4.176;2023-12-20T06:46:08;6.40;99.90
24252;DHT22;12380;51.118;4.176;2023-12-20T06:48:34;6.30;99.90
24252;DHT22;12380;51.118;4.176;2023-12-20T06:51:00;6.30;99.90
24252;DHT22;12380;51.118;4.176;2023-12-20T06:53:26;6.40;99.90
24252;DHT22;12380;51.118;4.176;2023-12-20T06:55:51;6.30;99.90
24252;DHT22;12380;51.118;4.176;2023-12-20T06:58:17;6.30;99.90
24252;DHT22;12380;51.118;4.176;2023-12-20T07:00:42;6.40;99.90
24252;DHT22;12380;51.118;4.176;2023-12-20T07:03:09;6.30;99.90
24252;DHT22;12380;51.118;4.176;2023-12-20T07:05:34;6.30;99.90
24252;DHT22;12380;51.118;4.176;2023-12-20T07:08:00;6.30;99.90
24252;DHT22;12380;51.118;4.176;2023-12-20T07:10:25;6.20;99.90
24252;DHT22;12380;51.118;4.176;2023-12-20T07:12:53;6.10;99.90
24252;DHT22;12380;51.118;4.176;2023-12-20T07:15:20;6.20;99.90
24252;DHT22;12380;51.118;4.176;2023-12-20T07:17:46;6.10;99.90
24252;DHT22;12380;51.118;4.176;2023-12-20T07:20:12;6.10;99.90
24252;DHT22;12380;51.118;4.176;2023-12-20T07:22:39;6.10;99.90
24252;DHT22;12380;51.118;4.176;2023-12-20T07:25:05;6.10;99.90
24252;DHT22;12380;51.118;4.176;2023-12-20T07:27:31;6.10;99.90
24252;DHT22;12380;51.118;4.176;2023-12-20T07:29:59;6.00;99.90
24252;DHT22;12380;51.118;4.176;2023-12-20T07:32:24;5.90;99.90
24252;DHT22;12380;51.118;4.176;2023-12-20T07:34:50;6.00;99.90
24252;DHT22;12380;51.118;4.176;2023-12-20T07:37:15;5.90;99.90
24252;DHT22;12380;51.118;4.176;2023-12-20T07:39:41;5.90;99.90
24252;DHT22;12380;51.118;4.176;2023-12-20T07:42:11;5.90;99.90
24252;DHT22;12380;51.118;4.176;2023-12-20T07:44:37;5.90;99.90
24252;DHT22;12380;51.118;4.176;2023-12-20T07:47:02;5.80;99.90
24252;DHT22;12380;51.118;4.176;2023-12-20T07:49:31;5.70;99.90
24252;DHT22;12380;51.118;4.176;2023-12-20T07:51:57;5.80;99.90
24252;DHT22;12380;51.118;4.176;2023-12-20T07:54:22;5.70;99.90
24252;DHT22;12380;51.118;4.176;2023-12-20T07:56:48;5.80;99.90
24252;DHT22;12380;51.118;4.176;2023-12-20T07:59:14;5.90;99.90
24252;DHT22;12380;51.118;4.176;2023-12-20T08:01:42;5.90;99.90
24252;DHT22;12380;51.118;4.176;2023-12-20T08:04:08;5.90;99.90
24252;DHT22;12380;51.118;4.176;2023-12-20T08:06:33;6.00;99.90
24252;DHT22;12380;51.118;4.176;2023-12-20T08:08:59;5.90;99.90
24252;DHT22;12380;51.118;4.176;2023-12-20T08:11:26;6.00;99.90
24252;DHT22;12380;51.118;4.176;2023-12-20T08:13:52;6.30;99.90
24252;DHT22;12380;51.118;4.176;2023-12-20T08:16:18;6.30;99.90
24252;DHT22;12380;51.118;4.176;2023-12-20T08:18:43;6.20;99.90
24252;DHT22;12380;51.118;4.176;2023-12-20T08:21:09;6.20;99.90
24252;DHT22;12380;51.118;4.176;2023-12-20T08:23:37;6.00;99.90
24252;DHT22;12380;51.118;4.176;2023-12-20T08:26:03;6.10;99.90
24252;DHT22;12380;51.118;4.176;2023-12-20T08:28:29;6.10;99.90
24252;DHT22;12380;51.118;4.176;2023-12-20T08:30:56;6.10;99.90
24252;DHT22;12380;51.118;4.176;2023-12-20T08:33:22;6.20;99.90
24252;DHT22;12380;51.118;4.176;2023-12-20T08:35:47;6.30;99.90
24252;DHT22;12380;51.118;4.176;2023-12-20T08:38:15;6.30;99.90
24252;DHT22;12380;51.118;4.176;2023-12-20T08:40:44;6.50;99.90
24252;DHT22;12380;51.118;4.176;2023-12-20T08:43:10;6.70;99.90
24252;DHT22;12380;51.118;4.176;2023-12-20T08:45:36;6.90;99.90
24252;DHT22;12380;51.118;4.176;2023-12-20T08:48:01;7.10;99.90
24252;DHT22;12380;51.118;4.176;2023-12-20T08:50:27;7.30;99.90
24252;DHT22;12380;51.118;4.176;2023-12-20T08:52:53;7.40;99.90
24252;DHT22;12380;51.118;4.176;2023-12-20T08:55:19;7.70;99.90
24252;DHT22;12380;51.118;4.176;2023-12-20T08:57:44;8.10;99.90
24252;DHT22;12380;51.118;4.176;2023-12-20T09:00:10;8.50;99.90
24252;DHT22;12380;51.118;4.176;2023-12-20T09:02:36;8.80;99.90
24252;DHT22;12380;51.118;4.176;2023-12-20T09:05:03;8.80;99.90
24252;DHT22;12380;51.118;4.176;2023-12-20T09:07:28;9.10;99.90
24252;DHT22;12380;51.118;4.176;2023-12-20T09:09:57;9.30;99.90
24252;DHT22;12380;51.118;4.176;2023-12-20T09:12:22;9.20;99.90
24252;DHT22;12380;51.118;4.176;2023-12-20T09:14:49;9.10;99.90
24252;DHT22;12380;51.118;4.176;2023-12-20T09:17:15;9.10;99.90
24252;DHT22;12380;51.118;4.176;2023-12-20T09:19:41;9.00;99.90
24252;DHT22;12380;51.118;4.176;2023-12-20T09:22:07;9.10;99.90
24252;DHT22;12380;51.118;4.176;2023-12-20T09:24:32;8.80;99.90
24252;DHT22;12380;51.118;4.176;2023-12-20T09:26:58;8.80;99.90
24252;DHT22;12380;51.118;4.176;2023-12-20T09:29:24;8.60;99.90
24252;DHT22;12380;51.118;4.176;2023-12-20T09:31:52;8.50;99.90
24252;DHT22;12380;51.118;4.176;2023-12-20T09:34:18;8.50;99.90
24252;DHT22;12380;51.118;4.176;2023-12-20T09:36:43;8.50;99.90
24252;DHT22;12380;51.118;4.176;2023-12-20T09:39:17;8.50;99.90
24252;DHT22;12380;51.118;4.176;2023-12-20T09:41:51;8.20;99.90
24252;DHT22;12380;51.118;4.176;2023-12-20T09:44:20;8.50;99.90
24252;DHT22;12380;51.118;4.176;2023-12-20T09:46:48;8.70;99.90
24252;DHT22;12380;51.118;4.176;2023-12-20T09:49:14;8.60;99.90
24252;DHT22;12380;51.118;4.176;2023-12-20T09:51:41;9.00;99.90
24252;DHT22;12380;51.118;4.176;2023-12-20T09:54:08;9.70;99.90
24252;DHT22;12380;51.118;4.176;2023-12-20T09:56:35;10.60;99.90
24252;DHT22;12380;51.118;4.176;2023-12-20T09:59:00;11.20;99.90
24252;DHT22;12380;51.118;4.176;2023-12-20T10:01:29;11.00;99.90
24252;DHT22;12380;51.118;4.176;2023-12-20T10:03:57;10.50;99.90
24252;DHT22;12380;51.118;4.176;2023-12-20T10:06:25;10.20;99.90
24252;DHT22;12380;51.118;4.176;2023-12-20T10:08:51;9.80;99.90
24252;DHT22;12380;51.118;4.176;2023-12-20T10:11:17;9.40;99.90
24252;DHT22;12380;51.118;4.176;2023-12-20T10:13:42;9.10;99.90
24252;DHT22;12380;51.118;4.176;2023-12-20T10:16:14;8.90;99.90
24252;DHT22;12380;51.118;4.176;2023-12-20T10:18:42;8.70;99.90
24252;DHT22;12380;51.118;4.176;2023-12-20T10:21:07;8.60;99.90
24252;DHT22;12380;51.118;4.176;2023-12-20T10:23:35;8.50;99.90
24252;DHT22;12380;51.118;4.176;2023-12-20T10:26:04;8.50;99.90
24252;DHT22;12380;51.118;4.176;2023-12-20T10:28:33;8.30;99.90
24252;DHT22;12380;51.118;4.176;2023-12-20T10:30:59;8.40;99.90
24252;DHT22;12380;51.118;4.176;2023-12-20T10:33:25;8.50;99.90
24252;DHT22;12380;51.118;4.176;2023-12-20T10:35:54;8.40;99.90
24252;DHT22;12380;51.118;4.176;2023-12-20T10:38:19;8.40;99.90
24252;DHT22;12380;51.118;4.176;2023-12-20T10:40:45;8.40;99.90
24252;DHT22;12380;51.118;4.176;2023-12-20T10:43:11;8.50;99.90
24252;DHT22;12380;51.118;4.176;2023-12-20T10:45:37;8.40;99.90
24252;DHT22;12380;51.118;4.176;2023-12-20T10:48:03;8.40;99.90
24252;DHT22;12380;51.118;4.176;2023-12-20T10:50:29;8.30;99.90
24252;DHT22;12380;51.118;4.176;2023-12-20T10:52:55;8.40;99.90
24252;DHT22;12380;51.118;4.176;2023-12-20T10:55:24;8.30;99.90
24252;DHT22;12380;51.118;4.176;2023-12-20T11:00:48;8.30;99.90
24252;DHT22;12380;51.118;4.176;2023-12-20T11:03:16;8.30;99.90
24252;DHT22;12380;51.118;4.176;2023-12-20T11:08:20;8.30;99.90
24252;DHT22;12380;51.118;4.176;2023-12-20T11:13:35;8.30;99.90
24252;DHT22;12380;51.118;4.176;2023-12-20T11:16:05;8.30;99.90
24252;DHT22;12380;51.118;4.176;2023-12-20T11:18:31;8.30;99.90
24252;DHT22;12380;51.118;4.176;2023-12-20T11:21:00;8.30;99.90
24252;DHT22;12380;51.118;4.176;2023-12-20T11:23:26;8.30;99.90
24252;DHT22;12380;51.118;4.176;2023-12-20T11:25:52;8.30;99.90
24252;DHT22;12380;51.118;4.176;2023-12-20T11:28:20;8.20;99.90
24252;DHT22;12380;51.118;4.176;2023-12-20T11:33:14;8.40;99.90
24252;DHT22;12380;51.118;4.176;2023-12-20T11:35:40;8.40;99.90
24252;DHT22;12380;51.118;4.176;2023-12-20T11:38:09;8.40;99.90
24252;DHT22;12380;51.118;4.176;2023-12-20T11:40:35;8.40;99.90
24252;DHT22;12380;51.118;4.176;2023-12-20T11:43:02;8.40;99.90
24252;DHT22;12380;51.118;4.176;2023-12-20T11:45:27;8.40;99.90
24252;DHT22;12380;51.118;4.176;2023-12-20T11:47:53;8.40;99.90
24252;DHT22;12380;51.118;4.176;2023-12-20T11:50:20;8.50;99.90
24252;DHT22;12380;51.118;4.176;2023-12-20T11:52:46;8.40;99.90
24252;DHT22;12380;51.118;4.176;2023-12-20T11:55:14;8.40;99.90
24252;DHT22;12380;51.118;4.176;2023-12-20T11:57:40;8.50;99.90
24252;DHT22;12380;51.118;4.176;2023-12-20T12:00:06;8.60;99.90
24252;DHT22;12380;51.118;4.176;2023-12-20T12:02:31;8.60;99.90
24252;DHT22;12380;51.118;4.176;2023-12-20T12:04:57;8.80;99.90
24252;DHT22;12380;51.118;4.176;2023-12-20T12:07:24;8.90;99.90
24252;DHT22;12380;51.118;4.176;2023-12-20T12:09:50;9.00;99.90
24252;DHT22;12380;51.118;4.176;2023-12-20T12:12:16;8.80;99.90
24252;DHT22;12380;51.118;4.176;2023-12-20T12:14:44;9.00;99.90
24252;DHT22;12380;51.118;4.176;2023-12-20T12:17:10;9.00;99.90
24252;DHT22;12380;51.118;4.176;2023-12-20T12:19:37;8.90;99.90
24252;DHT22;12380;51.118;4.176;2023-12-20T12:22:09;8.90;99.90
24252;DHT22;12380;51.118;4.176;2023-12-20T12:24:44;8.90;99.90
24252;DHT22;12380;51.118;4.176;2023-12-20T12:27:12;9.00;99.90
24252;DHT22;12380;51.118;4.176;2023-12-20T12:29:41;9.00;99.90
24252;DHT22;12380;51.118;4.176;2023-12-20T12:32:24;9.10;99.90
24252;DHT22;12380;51.118;4.176;2023-12-20T12:34:50;9.10;99.90
24252;DHT22;12380;51.118;4.176;2023-12-20T12:37:16;9.00;99.90
24252;DHT22;12380;51.118;4.176;2023-12-20T12:39:41;8.90;99.90
24252;DHT22;12380;51.118;4.176;2023-12-20T12:42:07;8.90;99.90
24252;DHT22;12380;51.118;4.176;2023-12-20T12:44:32;8.90;99.90
24252;DHT22;12380;51.118;4.176;2023-12-20T12:46:58;8.90;99.90
24252;DHT22;12380;51.118;4.176;2023-12-20T12:49:23;8.90;99.90
24252;DHT22;12380;51.118;4.176;2023-12-20T12:51:49;9.00;99.90
24252;DHT22;12380;51.118;4.176;2023-12-20T12:54:14;9.10;99.90
24252;DHT22;12380;51.118;4.176;2023-12-20T12:56:42;9.10;99.90
24252;DHT22;12380;51.118;4.176;2023-12-20T12:59:08;9.20;99.90
24252;DHT22;12380;51.118;4.176;2023-12-20T13:01:33;9.20;99.90
24252;DHT22;12380;51.118;4.176;2023-12-20T13:03:59;9.20;99.90
24252;DHT22;12380;51.118;4.176;2023-12-20T13:06:26;9.20;99.90
24252;DHT22;12380;51.118;4.176;2023-12-20T13:08:52;9.10;99.90
24252;DHT22;12380;51.118;4.176;2023-12-20T13:11:17;9.00;99.90
24252;DHT22;12380;51.118;4.176;2023-12-20T13:13:43;9.10;99.90
24252;DHT22;12380;51.118;4.176;2023-12-20T13:16:08;9.10;99.90
24252;DHT22;12380;51.118;4.176;2023-12-20T13:18:34;9.20;99.90
24252;DHT22;12380;51.118;4.176;2023-12-20T13:21:00;9.20;99.90
24252;DHT22;12380;51.118;4.176;2023-12-20T13:23:25;9.20;99.90
24252;DHT22;12380;51.118;4.176;2023-12-20T13:25:53;9.10;99.90
24252;DHT22;12380;51.118;4.176;2023-12-20T13:28:18;9.20;99.90
24252;DHT22;12380;51.118;4.176;2023-12-20T13:30:44;9.00;99.90
24252;DHT22;12380;51.118;4.176;2023-12-20T13:33:10;9.10;99.90
24252;DHT22;12380;51.118;4.176;2023-12-20T13:35:36;9.20;99.90
24252;DHT22;12380;51.118;4.176;2023-12-20T13:38:02;9.20;99.90
24252;DHT22;12380;51.118;4.176;2023-12-20T13:40:28;9.30;99.90
24252;DHT22;12380;51.118;4.176;2023-12-20T13:42:53;9.40;99.90
24252;DHT22;12380;51.118;4.176;2023-12-20T13:45:20;9.30;99.90
24252;DHT22;12380;51.118;4.176;2023-12-20T13:47:45;9.30;99.90
24252;DHT22;12380;51.118;4.176;2023-12-20T13:50:11;9.40;99.90
24252;DHT22;12380;51.118;4.176;2023-12-20T13:52:37;9.30;99.90
24252;DHT22;12380;51.118;4.176;2023-12-20T13:55:03;9.30;99.90
24252;DHT22;12380;51.118;4.176;2023-12-20T13:57:30;9.30;99.90
24252;DHT22;12380;51.118;4.176;2023-12-20T13:59:56;9.30;99.90
24252;DHT22;12380;51.118;4.176;2023-12-20T14:02:24;9.30;99.90
24252;DHT22;12380;51.118;4.176;2023-12-20T14:04:52;9.30;99.90
24252;DHT22;12380;51.118;4.176;2023-12-20T14:07:17;9.40;99.90
24252;DHT22;12380;51.118;4.176;2023-12-20T14:09:43;9.50;99.90
24252;DHT22;12380;51.118;4.176;2023-12-20T14:12:13;9.50;99.90
24252;DHT22;12380;51.118;4.176;2023-12-20T14:14:39;9.50;99.90
24252;DHT22;12380;51.118;4.176;2023-12-20T14:17:04;9.60;99.90
24252;DHT22;12380;51.118;4.176;2023-12-20T14:19:33;9.70;99.90
24252;DHT22;12380;51.118;4.176;2023-12-20T14:21:58;9.70;99.90
24252;DHT22;12380;51.118;4.176;2023-12-20T14:24:27;9.80;99.90
24252;DHT22;12380;51.118;4.176;2023-12-20T14:26:55;9.80;99.90
24252;DHT22;12380;51.118;4.176;2023-12-20T14:29:23;9.60;99.90
24252;DHT22;12380;51.118;4.176;2023-12-20T14:31:49;9.50;99.90
24252;DHT22;12380;51.118;4.176;2023-12-20T14:34:17;9.50;99.90
24252;DHT22;12380;51.118;4.176;2023-12-20T14:36:43;9.60;99.90
24252;DHT22;12380;51.118;4.176;2023-12-20T14:39:08;9.70;99.90
24252;DHT22;12380;51.118;4.176;2023-12-20T14:41:38;9.60;99.90
24252;DHT22;12380;51.118;4.176;2023-12-20T14:44:05;9.60;99.90
24252;DHT22;12380;51.118;4.176;2023-12-20T14:46:30;9.60;99.90
24252;DHT22;12380;51.118;4.176;2023-12-20T14:48:56;9.60;99.90
24252;DHT22;12380;51.118;4.176;2023-12-20T14:51:22;9.60;99.90
24252;DHT22;12380;51.118;4.176;2023-12-20T14:53:48;9.60;99.90
24252;DHT22;12380;51.118;4.176;2023-12-20T14:56:13;9.50;99.90
24252;DHT22;12380;51.118;4.176;2023-12-20T14:58:40;9.40;99.90
24252;DHT22;12380;51.118;4.176;2023-12-20T15:01:05;9.40;99.90
24252;DHT22;12380;51.118;4.176;2023-12-20T15:03:34;9.50;99.90
24252;DHT22;12380;51.118;4.176;2023-12-20T15:06:00;9.60;99.90
24252;DHT22;12380;51.118;4.176;2023-12-20T15:08:25;9.50;99.90
24252;DHT22;12380;51.118;4.176;2023-12-20T15:10:54;9.40;99.90
24252;DHT22;12380;51.118;4.176;2023-12-20T15:13:22;9.40;99.90
24252;DHT22;12380;51.118;4.176;2023-12-20T15:15:48;9.50;99.90
24252;DHT22;12380;51.118;4.176;2023-12-20T15:18:16;9.50;99.90
24252;DHT22;12380;51.118;4.176;2023-12-20T15:20:41;9.60;99.90
24252;DHT22;12380;51.118;4.176;2023-12-20T15:23:09;9.50;99.90
24252;DHT22;12380;51.118;4.176;2023-12-20T15:25:34;9.50;99.90
24252;DHT22;12380;51.118;4.176;2023-12-20T15:28:00;9.50;99.90
24252;DHT22;12380;51.118;4.176;2023-12-20T15:30:28;9.30;99.90
24252;DHT22;12380;51.118;4.176;2023-12-20T15:32:55;9.30;99.90
24252;DHT22;12380;51.118;4.176;2023-12-20T15:35:23;9.40;99.90
24252;DHT22;12380;51.118;4.176;2023-12-20T15:37:48;9.30;99.90
24252;DHT22;12380;51.118;4.176;2023-12-20T15:40:14;9.40;99.90
24252;DHT22;12380;51.118;4.176;2023-12-20T15:42:39;9.40;99.90
24252;DHT22;12380;51.118;4.176;2023-12-20T15:45:06;9.50;99.90
24252;DHT22;12380;51.118;4.176;2023-12-20T15:47:32;9.50;99.90
24252;DHT22;12380;51.118;4.176;2023-12-20T15:49:58;9.40;99.90